Time;durP1;ratioP1;P1;durP2;ratioP2;P2;SDS_P1;SDS_P2;PMS_P1;PMS_P2;Temp;Humidity;BMP_temperature;BMP_pressure;BME280_temperature;BME280_humidity;BME280_pressure;Samples;Min_cycle;Max_cycle;Signal;HPM_P1;HPM_P2
2022/09/03 00:00:15;;;;;;;2.07;1.40;;;16.90;1.00;;;;;;5029244;28;20210;-68
2022/09/03 00:02:44;;;;;;;3.13;1.23;;;16.90;1.00;;;;;;5085556;28;20300;-68
2022/09/03 00:05:20;;;;;;;1.80;1.33;;;16.90;1.00;;;;;;5086762;28;20676;-68
2022/09/03 00:08:05;;;;;;;1.87;1.43;;;16.90;1.00;;;;;;5053751;28;20194;-68
2022/09/03 00:10:49;;;;;;;2.37;1.43;;;16.80;1.00;;;;;;5066241;28;20245;-66
2022/09/03 00:13:41;;;;;;;5.03;1.83;;;16.70;1.00;;;;;;5050765;28;20198;-69
2022/09/03 00:16:17;;;;;;;1.53;1.20;;;16.70;1.00;;;;;;5065626;28;20224;-70
2022/09/03 00:18:48;;;;;;;3.23;1.50;;;16.60;1.00;;;;;;5078574;28;20194;-68
2022/09/03 00:21:23;;;;;;;3.87;1.47;;;16.60;1.00;;;;;;5061567;28;20211;-73
2022/09/03 00:23:51;;;;;;;2.80;1.43;;;16.60;1.00;;;;;;5080566;28;20218;-73
2022/09/03 00:26:29;;;;;;;4.80;1.57;;;16.60;1.00;;;;;;5085761;28;20205;-73
2022/09/03 00:29:12;;;;;;;1.90;1.33;;;16.60;1.00;;;;;;5083450;28;20193;-73
2022/09/03 00:31:47;;;;;;;2.03;1.30;;;16.60;1.00;;;;;;5085318;28;20699;-73
2022/09/03 00:34:29;;;;;;;2.87;1.40;;;16.60;1.00;;;;;;5088589;28;20216;-70
2022/09/03 00:36:56;;;;;;;4.10;1.27;;;16.60;1.00;;;;;;5068975;28;20240;-73
2022/09/03 00:39:25;;;;;;;1.63;1.40;;;16.50;1.00;;;;;;5062196;28;20288;-72
2022/09/03 00:42:05;;;;;;;2.37;1.30;;;16.50;1.00;;;;;;5069221;28;20764;-72
2022/09/03 00:45:01;;;;;;;3.43;1.20;;;16.60;1.00;;;;;;5088225;28;20203;-72
2022/09/03 00:48:06;;;;;;;2.40;1.37;;;16.40;1.00;;;;;;5085674;28;20260;-72
2022/09/03 00:50:54;;;;;;;2.27;1.47;;;16.40;1.00;;;;;;5056296;28;20211;-72
2022/09/03 00:53:50;;;;;;;2.07;1.60;;;16.40;1.00;;;;;;5082644;28;20209;-72
2022/09/03 00:56:36;;;;;;;3.70;1.30;;;16.30;1.00;;;;;;5056933;28;20237;-70
2022/09/03 00:59:16;;;;;;;3.20;1.40;;;16.20;1.00;;;;;;5062741;28;20251;-72
2022/09/03 01:02:04;;;;;;;4.93;1.30;;;16.20;1.00;;;;;;5068134;28;20719;-71
2022/09/03 01:04:45;;;;;;;1.60;1.40;;;16.10;1.00;;;;;;5055624;28;20262;-72
2022/09/03 01:07:18;;;;;;;2.20;1.57;;;16.10;1.00;;;;;;5071676;28;20190;-68
2022/09/03 01:10:14;;;;;;;4.70;1.40;;;16.10;1.00;;;;;;5046470;28;20312;-70
2022/09/03 01:12:54;;;;;;;2.93;1.10;;;16.10;1.00;;;;;;5076578;28;20233;-70
2022/09/03 01:15:59;;;;;;;2.70;1.30;;;16.00;1.00;;;;;;5060181;28;20272;-69
2022/09/03 01:18:58;;;;;;;3.10;1.50;;;16.00;1.00;;;;;;5081005;28;20240;-72
2022/09/03 01:21:40;;;;;;;6.07;1.47;;;16.00;1.00;;;;;;5042754;28;20246;-71
2022/09/03 01:24:28;;;;;;;2.87;1.20;;;15.90;1.00;;;;;;5082287;28;20264;-72
2022/09/03 01:27:14;;;;;;;3.87;1.40;;;15.80;1.00;;;;;;5050770;28;20248;-72
2022/09/03 01:29:46;;;;;;;2.97;1.37;;;15.80;1.00;;;;;;5067924;28;20253;-72
2022/09/03 01:32:56;;;;;;;2.07;1.20;;;15.90;1.00;;;;;;5060704;28;20198;-70
2022/09/03 01:35:33;;;;;;;2.33;1.60;;;15.90;1.00;;;;;;5014418;28;20206;-70
2022/09/03 01:38:22;;;;;;;5.93;2.40;;;15.80;1.00;;;;;;5086305;28;20187;-70
2022/09/03 01:44:16;;;;;;;3.03;2.40;;;15.80;1.00;;;;;;5082992;28;20232;-69
2022/09/03 01:46:49;;;;;;;3.23;2.53;;;15.70;1.00;;;;;;5081428;28;20240;-68
2022/09/03 01:49:31;;;;;;;2.20;1.57;;;15.70;1.00;;;;;;5079712;28;20190;-70
2022/09/03 01:52:10;;;;;;;3.87;1.87;;;15.70;1.00;;;;;;5081961;28;20214;-69
2022/09/03 01:54:49;;;;;;;5.23;2.77;;;15.60;1.00;;;;;;5059473;28;20213;-70
2022/09/03 01:57:44;;;;;;;2.80;2.50;;;15.60;1.00;;;;;;5054910;28;20257;-66
2022/09/03 02:00:15;;;;;;;2.50;1.83;;;15.60;1.00;;;;;;5077899;28;20673;-66
2022/09/03 02:02:46;;;;;;;4.23;2.37;;;15.60;1.00;;;;;;5079853;28;20267;-67
2022/09/03 02:05:24;;;;;;;5.37;2.47;;;15.60;1.00;;;;;;5077851;28;20206;-67
2022/09/03 02:08:08;;;;;;;2.00;1.63;;;15.50;1.00;;;;;;5046200;28;20298;-66
2022/09/03 02:10:49;;;;;;;4.13;2.43;;;15.50;1.00;;;;;;5079535;28;20224;-66
2022/09/03 02:13:24;;;;;;;6.17;1.73;;;15.40;1.00;;;;;;5057305;28;20209;-66
2022/09/03 02:15:53;;;;;;;3.03;1.77;;;15.40;1.00;;;;;;5076278;28;20214;-68
2022/09/03 02:18:24;;;;;;;2.10;1.50;;;15.30;1.00;;;;;;5072280;28;20194;-67
2022/09/03 02:20:53;;;;;;;2.77;2.07;;;15.30;1.00;;;;;;5059372;28;20274;-69
2022/09/03 02:23:21;;;;;;;3.40;2.03;;;15.20;1.00;;;;;;5077813;28;20206;-66
2022/09/03 02:25:57;;;;;;;5.13;1.80;;;15.30;1.00;;;;;;5094530;28;20190;-66
2022/09/03 02:28:26;;;;;;;4.60;1.60;;;15.30;1.00;;;;;;5091818;28;20198;-65
2022/09/03 02:30:54;;;;;;;2.87;1.73;;;15.20;1.00;;;;;;5070082;28;20211;-63
2022/09/03 02:33:21;;;;;;;2.13;1.20;;;15.10;1.00;;;;;;5046217;28;20202;-62
2022/09/03 02:35:48;;;;;;;4.53;1.50;;;15.10;1.00;;;;;;5079564;28;20625;-63
2022/09/03 02:38:18;;;;;;;7.40;1.70;;;15.10;1.00;;;;;;5049079;28;20257;-63
2022/09/03 02:40:45;;;;;;;2.83;1.33;;;15.00;1.00;;;;;;5080468;28;20186;-63
2022/09/03 02:43:24;;;;;;;1.73;1.40;;;15.00;1.00;;;;;;5066466;28;20905;-63
2022/09/03 02:45:55;;;;;;;2.63;1.77;;;15.00;1.00;;;;;;5077032;28;20208;-63
2022/09/03 02:48:24;;;;;;;2.43;1.50;;;15.00;1.00;;;;;;5045595;28;20261;-64
2022/09/03 02:50:51;;;;;;;1.67;1.50;;;15.00;1.00;;;;;;5060945;28;20182;-64
2022/09/03 02:53:19;;;;;;;4.70;1.87;;;14.90;1.00;;;;;;5060513;28;20175;-63
2022/09/03 02:55:46;;;;;;;3.30;1.80;;;14.90;1.00;;;;;;5039239;28;20281;-64
2022/09/03 02:58:13;;;;;;;1.50;1.20;;;14.90;1.00;;;;;;5058952;28;20280;-63
2022/09/03 03:00:40;;;;;;;1.70;1.37;;;14.80;1.00;;;;;;5045199;28;20254;-64
2022/09/03 03:03:07;;;;;;;1.97;1.40;;;14.90;1.00;;;;;;5061998;28;20665;-64
2022/09/03 03:05:50;;;;;;;2.33;1.43;;;14.90;1.00;;;;;;5064108;28;20219;-63
2022/09/03 03:08:20;;;;;;;1.77;1.30;;;14.80;1.00;;;;;;5059231;28;20626;-63
2022/09/03 03:10:48;;;;;;;4.90;1.60;;;14.80;1.00;;;;;;5061498;28;20230;-64
2022/09/03 03:13:15;;;;;;;3.23;1.53;;;14.80;1.00;;;;;;5059658;28;20230;-64
2022/09/03 03:15:43;;;;;;;3.77;1.47;;;14.80;1.00;;;;;;5044815;28;20704;-63
2022/09/03 03:18:12;;;;;;;4.63;1.63;;;14.70;1.00;;;;;;5043874;28;20194;-62
2022/09/03 03:20:40;;;;;;;3.33;1.57;;;14.70;1.00;;;;;;5059677;28;20195;-63
2022/09/03 03:23:09;;;;;;;2.33;1.50;;;14.60;1.00;;;;;;5061076;28;20198;-63
2022/09/03 03:25:37;;;;;;;4.23;1.60;;;14.70;1.00;;;;;;5068838;28;20230;-63
2022/09/03 03:28:06;;;;;;;2.03;1.03;;;14.60;1.00;;;;;;5061475;28;20233;-63
2022/09/03 03:30:37;;;;;;;3.47;1.70;;;14.60;1.00;;;;;;5037692;28;20609;-62
2022/09/03 03:33:07;;;;;;;4.47;1.37;;;14.60;1.00;;;;;;5027549;28;20191;-62
2022/09/03 03:35:35;;;;;;;5.90;1.50;;;14.60;1.00;;;;;;5063096;28;20590;-62
2022/09/03 03:38:02;;;;;;;1.97;1.50;;;14.60;1.00;;;;;;5045335;28;20191;-62
2022/09/03 03:40:30;;;;;;;4.63;1.30;;;14.60;1.00;;;;;;5061678;28;20688;-62
2022/09/03 03:42:57;;;;;;;2.97;1.30;;;14.50;1.00;;;;;;5038641;28;20203;-64
2022/09/03 03:45:25;;;;;;;3.97;1.40;;;14.50;1.00;;;;;;5041966;28;20218;-63
2022/09/03 03:47:58;;;;;;;2.40;1.50;;;14.50;1.00;;;;;;5072670;28;20260;-63
2022/09/03 03:50:25;;;;;;;1.70;1.40;;;14.50;1.00;;;;;;5075202;28;20236;-63
2022/09/03 03:52:51;;;;;;;2.83;1.40;;;14.50;1.70;;;;;;5079857;28;20194;-64
2022/09/03 03:55:18;;;;;;;2.80;1.60;;;14.50;5.80;;;;;;5076839;28;20792;-64
2022/09/03 03:57:45;;;;;;;3.60;1.50;;;14.50;4.10;;;;;;5077238;28;20279;-63
2022/09/03 04:00:14;;;;;;;3.87;1.53;;;14.50;17.40;;;;;;5078173;28;20196;-62
2022/09/03 04:02:41;;;;;;;4.77;1.77;;;14.40;11.80;;;;;;5076866;28;20221;-63
2022/09/03 04:05:08;;;;;;;6.23;1.57;;;14.50;11.10;;;;;;5081024;28;20211;-62
2022/09/03 04:07:36;;;;;;;5.07;1.77;;;14.50;10.20;;;;;;5078722;28;20541;-63
2022/09/03 04:10:03;;;;;;;2.73;1.50;;;14.50;22.60;;;;;;5055403;28;21806;-63
2022/09/03 04:12:30;;;;;;;1.57;1.40;;;14.40;13.30;;;;;;5059218;28;20540;-63
2022/09/03 04:14:57;;;;;;;3.20;1.37;;;14.40;16.90;;;;;;5059397;28;20945;-62
2022/09/03 04:17:25;;;;;;;3.20;1.90;;;14.40;15.30;;;;;;5078187;28;20198;-63
2022/09/03 04:19:52;;;;;;;3.60;1.47;;;14.30;33.50;;;;;;5078136;28;20518;-64
2022/09/03 04:22:19;;;;;;;5.50;1.30;;;14.40;21.80;;;;;;5064324;28;20209;-62
2022/09/03 04:24:46;;;;;;;2.27;1.27;;;14.30;29.00;;;;;;5079321;28;20210;-62
2022/09/03 04:27:13;;;;;;;2.63;1.47;;;14.30;28.50;;;;;;5061610;28;20248;-63
2022/09/03 04:29:40;;;;;;;3.20;1.47;;;14.30;27.40;;;;;;5063625;28;20335;-63
2022/09/03 04:34:52;;;;;;;1.67;1.40;;;14.30;27.00;;;;;;5082761;28;20194;-63
2022/09/03 04:37:19;;;;;;;1.60;1.50;;;14.30;28.70;;;;;;5086224;28;20284;-63
2022/09/03 04:39:46;;;;;;;2.30;1.40;;;14.30;35.70;;;;;;5066819;28;20252;-62
2022/09/03 04:42:13;;;;;;;2.27;1.60;;;14.20;32.00;;;;;;5050714;28;20689;-62
2022/09/03 04:44:40;;;;;;;4.90;1.57;;;14.20;38.40;;;;;;5082216;28;20281;-63
2022/09/03 04:47:07;;;;;;;3.90;1.50;;;14.20;43.40;;;;;;5080241;28;20711;-65
2022/09/03 04:49:34;;;;;;;4.63;1.50;;;14.10;53.50;;;;;;5082527;28;20240;-64
2022/09/03 04:52:02;;;;;;;5.03;1.63;;;14.10;54.50;;;;;;5084859;28;20206;-65
2022/09/03 04:54:30;;;;;;;1.63;1.53;;;14.20;48.70;;;;;;5067203;28;20190;-66
2022/09/03 04:56:57;;;;;;;2.60;1.53;;;14.20;44.70;;;;;;5081546;28;20206;-65
2022/09/03 04:59:24;;;;;;;3.67;1.83;;;14.20;46.10;;;;;;5079253;28;20199;-66
2022/09/03 05:01:51;;;;;;;2.23;1.50;;;14.20;49.30;;;;;;5084751;28;20198;-65
2022/09/03 05:04:18;;;;;;;1.87;1.63;;;14.20;50.20;;;;;;5081214;28;20677;-65
2022/09/03 05:06:45;;;;;;;2.17;1.40;;;14.30;42.00;;;;;;5080887;28;20190;-65
2022/09/03 05:09:13;;;;;;;2.03;1.43;;;14.40;40.90;;;;;;5065390;28;20237;-65
2022/09/03 05:11:40;;;;;;;2.07;1.60;;;14.40;35.80;;;;;;5067004;28;20194;-65
2022/09/03 05:14:10;;;;;;;2.70;1.50;;;14.40;44.70;;;;;;5062339;28;20202;-65
2022/09/03 05:16:38;;;;;;;1.87;1.40;;;14.50;36.10;;;;;;5079631;28;20744;-66
2022/09/03 05:19:06;;;;;;;2.67;1.60;;;14.60;21.60;;;;;;5079074;28;20200;-66
2022/09/03 05:21:34;;;;;;;2.97;1.50;;;14.60;22.80;;;;;;5065067;28;20209;-63
2022/09/03 05:24:02;;;;;;;2.80;1.50;;;14.60;17.60;;;;;;5067093;28;20680;-65
2022/09/03 05:26:35;;;;;;;2.83;1.40;;;14.70;27.50;;;;;;5066581;28;20202;-65
2022/09/03 05:29:06;;;;;;;3.23;1.70;;;14.80;12.10;;;;;;5057683;28;20856;-65
2022/09/03 05:31:37;;;;;;;1.47;1.30;;;14.80;14.20;;;;;;5066652;28;20202;-67
2022/09/03 05:34:05;;;;;;;1.83;1.53;;;14.90;8.70;;;;;;5080967;28;20205;-64
2022/09/03 05:36:34;;;;;;;2.20;1.47;;;14.90;4.00;;;;;;5073467;28;20721;-64
2022/09/03 05:39:05;;;;;;;2.50;1.70;;;15.00;3.20;;;;;;5082971;28;20217;-64
2022/09/03 05:41:33;;;;;;;2.03;1.47;;;15.00;1.00;;;;;;5061460;28;20198;-65
2022/09/03 05:44:01;;;;;;;3.13;1.50;;;15.10;1.00;;;;;;5081992;28;20217;-65
2022/09/03 05:46:30;;;;;;;3.67;1.43;;;15.20;1.00;;;;;;5082182;28;20596;-65
2022/09/03 05:49:03;;;;;;;3.63;1.70;;;15.20;1.00;;;;;;5081583;28;20241;-66
2022/09/03 05:51:31;;;;;;;1.67;1.43;;;15.30;1.00;;;;;;5083005;28;20649;-65
2022/09/03 05:53:58;;;;;;;1.83;1.50;;;15.50;1.00;;;;;;5061202;28;20272;-66
2022/09/03 05:56:27;;;;;;;3.03;1.50;;;15.60;1.00;;;;;;5064443;28;20202;-66
2022/09/03 05:58:59;;;;;;;1.83;1.30;;;17.80;1.00;;;;;;5076621;28;20243;-66
2022/09/03 06:01:29;;;;;;;2.17;1.30;;;20.10;1.00;;;;;;5062222;28;20190;-66
2022/09/03 06:04:05;;;;;;;2.08;1.40;;;21.80;1.00;;;;;;5083906;28;20691;-66
2022/09/03 06:06:35;;;;;;;2.15;1.45;;;22.50;1.00;;;;;;5088312;28;20268;-65
2022/09/03 06:09:05;;;;;;;1.30;1.13;;;23.30;1.00;;;;;;5079111;28;20194;-66
2022/09/03 06:11:34;;;;;;;1.35;1.20;;;23.70;1.00;;;;;;5081184;28;20700;-65
2022/09/03 06:14:04;;;;;;;4.03;1.40;;;24.20;1.00;;;;;;5058018;28;20195;-65
2022/09/03 06:16:33;;;;;;;1.95;1.30;;;24.30;1.00;;;;;;5080561;28;20256;-64
2022/09/03 06:19:00;;;;;;;3.10;1.42;;;24.20;1.00;;;;;;5083563;28;20197;-67
2022/09/03 06:21:28;;;;;;;1.77;1.23;;;25.10;1.00;;;;;;5062572;28;20763;-67
2022/09/03 06:23:57;;;;;;;2.28;1.15;;;25.70;1.00;;;;;;5081045;28;20234;-67
2022/09/03 06:26:27;;;;;;;4.25;1.23;;;26.00;1.00;;;;;;5063510;28;20225;-66
2022/09/03 06:28:55;;;;;;;3.30;1.40;;;25.60;1.00;;;;;;5045418;28;20197;-63
2022/09/03 06:31:23;;;;;;;5.22;1.30;;;26.50;1.00;;;;;;5078487;28;20217;-65
2022/09/03 06:33:52;;;;;;;3.63;1.65;;;26.10;1.00;;;;;;5075157;28;22145;-63
2022/09/03 06:36:21;;;;;;;2.35;1.40;;;26.20;1.00;;;;;;5057669;28;21258;-62
2022/09/03 06:38:51;;;;;;;1.80;1.38;;;27.30;1.00;;;;;;5075773;28;20934;-66
2022/09/03 06:41:23;;;;;;;3.92;1.40;;;26.90;1.00;;;;;;5059427;28;20791;-65
2022/09/03 06:43:58;;;;;;;3.72;1.33;;;27.70;1.00;;;;;;5061063;28;20198;-65
2022/09/03 06:46:25;;;;;;;2.55;1.25;;;27.70;1.00;;;;;;5058450;28;20217;-66
2022/09/03 06:48:52;;;;;;;1.88;1.10;;;28.40;1.00;;;;;;5063433;28;20261;-64
2022/09/03 06:51:21;;;;;;;4.75;1.23;;;28.30;1.00;;;;;;5084009;28;20568;-65
2022/09/03 06:53:51;;;;;;;5.05;1.33;;;29.00;1.00;;;;;;5065215;28;20284;-66
2022/09/03 06:56:26;;;;;;;3.85;1.30;;;29.40;1.00;;;;;;5060553;28;20198;-65
2022/09/03 06:58:55;;;;;;;11.25;1.40;;;29.00;1.00;;;;;;5079186;28;20198;-64
2022/09/03 07:01:29;;;;;;;3.13;1.25;;;27.90;1.00;;;;;;5062849;28;20217;-63
2022/09/03 07:03:59;;;;;;;2.08;1.15;;;27.80;1.00;;;;;;5078412;28;20657;-64
2022/09/03 07:06:29;;;;;;;3.20;1.38;;;27.30;1.00;;;;;;5063506;28;20206;-64
2022/09/03 07:08:58;;;;;;;2.53;1.35;;;27.60;1.00;;;;;;5057771;28;20250;-64
2022/09/03 07:11:29;;;;;;;3.90;1.20;;;27.90;1.00;;;;;;5077782;28;20642;-64
2022/09/03 07:13:57;;;;;;;2.22;1.20;;;28.00;1.00;;;;;;5055140;28;20193;-64
2022/09/03 07:16:35;;;;;;;2.30;1.35;;;28.60;1.00;;;;;;5078822;28;20608;-63
2022/09/03 07:19:03;;;;;;;3.08;1.27;;;30.40;1.00;;;;;;5084323;28;20210;-65
2022/09/03 07:21:35;;;;;;;3.38;1.45;;;29.80;1.00;;;;;;5079073;28;20237;-64
2022/09/03 07:24:04;;;;;;;2.95;1.30;;;29.60;1.00;;;;;;5065229;28;20202;-64
2022/09/03 07:26:34;;;;;;;1.98;1.20;;;31.30;1.00;;;;;;5083416;28;20284;-64
2022/09/03 07:29:02;;;;;;;8.70;1.50;;;30.00;1.00;;;;;;5078660;28;20673;-63
2022/09/03 07:31:41;;;;;;;1.75;1.33;;;30.20;1.00;;;;;;5065557;28;20255;-63
2022/09/03 07:34:11;;;;;;;1.77;1.10;;;30.60;1.00;;;;;;5085420;28;20609;-64
2022/09/03 07:36:45;;;;;;;3.10;1.85;;;30.40;1.00;;;;;;5065579;28;20198;-62
2022/09/03 07:39:15;;;;;;;2.95;1.27;;;30.30;1.00;;;;;;5067935;28;20259;-64
2022/09/03 07:41:44;;;;;;;4.93;1.63;;;29.70;1.00;;;;;;5083687;28;20202;-62
2022/09/03 07:44:14;;;;;;;2.97;1.50;;;30.80;1.00;;;;;;5082649;28;20585;-62
2022/09/03 07:46:42;;;;;;;4.85;1.40;;;30.00;1.00;;;;;;5084634;28;20226;-65
2022/09/03 07:49:09;;;;;;;3.83;1.40;;;30.70;1.00;;;;;;5074090;28;20194;-65
2022/09/03 07:51:38;;;;;;;5.70;1.42;;;31.40;1.00;;;;;;5072934;28;20273;-64
2022/09/03 07:54:09;;;;;;;3.40;1.52;;;30.10;1.00;;;;;;5055342;28;20209;-64
2022/09/03 07:56:38;;;;;;;4.53;1.58;;;29.10;1.00;;;;;;5071681;28;20193;-65
2022/09/03 07:59:05;;;;;;;3.05;1.48;;;31.20;1.00;;;;;;5074160;28;20246;-63
2022/09/03 08:01:33;;;;;;;2.00;1.50;;;31.30;1.00;;;;;;5072603;28;20195;-63
2022/09/03 08:04:03;;;;;;;3.90;1.65;;;32.30;1.00;;;;;;5072351;28;20654;-64
2022/09/03 08:06:31;;;;;;;2.92;1.30;;;30.80;1.00;;;;;;5057617;28;20246;-65
2022/09/03 08:09:06;;;;;;;2.67;1.30;;;30.50;1.00;;;;;;5057034;28;20243;-63
2022/09/03 08:11:36;;;;;;;2.70;1.50;;;31.10;1.00;;;;;;5076855;28;20193;-65
2022/09/03 08:14:09;;;;;;;3.33;1.40;;;31.10;1.00;;;;;;5056908;28;20798;-62
2022/09/03 08:16:46;;;;;;;6.28;1.25;;;31.90;1.00;;;;;;5049810;28;20218;-65
2022/09/03 08:19:14;;;;;;;1.52;1.10;;;33.10;1.00;;;;;;5075843;28;20206;-64
2022/09/03 08:21:41;;;;;;;4.20;1.38;;;31.60;1.00;;;;;;5076232;28;20233;-62
2022/09/03 08:24:10;;;;;;;3.92;1.38;;;32.20;1.00;;;;;;5078180;28;20288;-65
2022/09/03 08:26:43;;;;;;;2.90;1.30;;;33.10;1.00;;;;;;5076831;28;20296;-63
2022/09/03 08:29:17;;;;;;;5.13;1.40;;;32.80;1.00;;;;;;5071673;28;20237;-64
2022/09/03 08:31:44;;;;;;;2.20;1.23;;;34.90;1.00;;;;;;5075219;28;20191;-62
2022/09/03 08:34:13;;;;;;;4.82;1.35;;;34.50;1.00;;;;;;5055645;28;20190;-62
2022/09/03 08:36:40;;;;;;;4.47;1.13;;;35.20;1.00;;;;;;5059496;28;20256;-66
2022/09/03 08:39:09;;;;;;;3.13;1.00;;;36.00;1.00;;;;;;5075801;28;20280;-63
2022/09/03 08:41:45;;;;;;;6.07;1.40;;;35.10;1.00;;;;;;5079004;28;20554;-64
2022/09/03 08:44:46;;;;;;;5.05;1.55;;;33.20;1.00;;;;;;5077816;28;20239;-64
2022/09/03 08:47:19;;;;;;;1.92;1.40;;;30.40;1.00;;;;;;5076343;28;20242;-65
2022/09/03 08:49:55;;;;;;;4.65;1.70;;;28.60;1.00;;;;;;5074200;28;20700;-63
2022/09/03 08:52:30;;;;;;;3.95;1.42;;;27.60;1.00;;;;;;5076617;28;20186;-62
2022/09/03 08:55:09;;;;;;;1.83;1.20;;;27.10;1.00;;;;;;5055893;28;20218;-64
2022/09/03 08:57:49;;;;;;;3.63;1.38;;;26.00;1.00;;;;;;5076768;28;20319;-64
2022/09/03 09:00:17;;;;;;;4.15;1.42;;;26.50;1.00;;;;;;5057654;28;20205;-65
2022/09/03 09:03:17;;;;;;;2.97;1.38;;;26.80;1.00;;;;;;5075470;28;20199;-64
2022/09/03 09:06:09;;;;;;;1.17;1.08;;;26.50;1.00;;;;;;5069002;28;20206;-62
2022/09/03 09:08:57;;;;;;;1.35;1.10;;;26.40;1.00;;;;;;5070382;28;20242;-62
2022/09/03 09:11:36;;;;;;;2.67;1.17;;;26.60;1.00;;;;;;5069898;28;21032;-63
2022/09/03 09:14:16;;;;;;;4.25;1.30;;;27.00;1.00;;;;;;5045846;28;20191;-62
2022/09/03 09:17:12;;;;;;;2.17;1.20;;;27.10;1.00;;;;;;5046401;28;20217;-65
2022/09/03 09:20:02;;;;;;;2.88;1.33;;;26.50;1.00;;;;;;5026949;28;20206;-64
2022/09/03 09:22:40;;;;;;;1.50;1.20;;;25.20;1.00;;;;;;5071314;28;20195;-63
2022/09/03 09:25:20;;;;;;;2.65;1.30;;;24.80;1.00;;;;;;5071081;28;20249;-64
2022/09/03 09:28:01;;;;;;;2.55;1.20;;;25.20;1.00;;;;;;5042997;28;20195;-66
2022/09/03 09:30:30;;;;;;;1.45;1.20;;;25.50;1.00;;;;;;5062892;28;20275;-64
2022/09/03 09:32:59;;;;;;;5.15;1.63;;;26.00;1.00;;;;;;5035392;28;20198;-64
2022/09/03 09:35:26;;;;;;;2.78;1.60;;;26.30;1.00;;;;;;5066613;28;21241;-64
2022/09/03 09:37:56;;;;;;;6.72;1.65;;;25.80;1.00;;;;;;5068700;28;20194;-64
2022/09/03 09:40:32;;;;;;;3.20;1.40;;;25.90;1.00;;;;;;5069581;28;20270;-63
2022/09/03 09:43:12;;;;;;;8.27;1.60;;;25.90;1.00;;;;;;5070517;28;20207;-65
2022/09/03 09:45:42;;;;;;;2.17;1.25;;;26.40;1.00;;;;;;5070759;28;20333;-64
2022/09/03 09:48:17;;;;;;;2.03;1.00;;;29.80;1.00;;;;;;5075785;28;20233;-63
2022/09/03 09:50:44;;;;;;;4.47;1.30;;;33.70;1.00;;;;;;5079446;28;20186;-64
2022/09/03 09:53:15;;;;;;;2.80;1.35;;;33.10;1.00;;;;;;5084013;28;20273;-65
2022/09/03 09:55:54;;;;;;;3.58;1.30;;;33.90;1.00;;;;;;5067013;28;20186;-63
2022/09/03 09:58:31;;;;;;;2.40;1.30;;;33.60;1.00;;;;;;5071310;28;20210;-65
2022/09/03 10:01:11;;;;;;;4.78;1.20;;;33.00;1.00;;;;;;5081353;28;20778;-62
2022/09/03 10:03:54;;;;;;;4.32;1.23;;;33.50;1.00;;;;;;5084537;28;20285;-63
2022/09/03 10:09:24;;;;;;;2.25;1.20;;;31.30;1.00;;;;;;5077333;28;20763;-63
2022/09/03 10:12:23;;;;;;;3.03;1.45;;;29.20;1.00;;;;;;5085637;28;20193;-65
2022/09/03 10:15:05;;;;;;;2.22;1.02;;;32.00;1.00;;;;;;5080882;28;20182;-67
2022/09/03 10:17:38;;;;;;;6.82;1.20;;;31.70;1.00;;;;;;5044310;28;20207;-62
2022/09/03 10:20:29;;;;;;;2.30;1.20;;;29.90;1.00;;;;;;5077692;28;20597;-64
2022/09/03 10:23:17;;;;;;;2.97;1.45;;;30.30;1.00;;;;;;5077031;28;20236;-66
2022/09/03 10:25:54;;;;;;;5.63;1.58;;;28.10;1.00;;;;;;5073229;28;20213;-65
2022/09/03 10:28:25;;;;;;;3.50;1.20;;;28.00;1.00;;;;;;5072829;28;20593;-65
2022/09/03 10:31:21;;;;;;;6.50;1.60;;;29.90;1.00;;;;;;5075517;28;20194;-64
2022/09/03 10:33:59;;;;;;;3.28;1.33;;;30.50;1.00;;;;;;5059967;28;20661;-63
2022/09/03 10:36:47;;;;;;;3.90;1.38;;;31.50;1.00;;;;;;5065006;28;20364;-63
2022/09/03 10:39:27;;;;;;;5.00;1.23;;;32.30;1.00;;;;;;5076544;28;20225;-64
2022/09/03 10:42:01;;;;;;;2.40;1.20;;;32.20;1.00;;;;;;5084120;28;20194;-65
2022/09/03 10:44:56;;;;;;;5.53;1.27;;;32.10;1.00;;;;;;5067596;28;20200;-65
2022/09/03 10:47:38;;;;;;;2.67;1.40;;;32.20;1.00;;;;;;5057331;28;20266;-64
2022/09/03 10:50:27;;;;;;;2.55;1.48;;;31.40;1.00;;;;;;5061997;28;20279;-64
2022/09/03 10:53:09;;;;;;;6.15;1.40;;;31.20;1.00;;;;;;5065189;28;20532;-63
2022/09/03 10:55:45;;;;;;;2.78;1.17;;;30.40;1.00;;;;;;5039921;28;20231;-64
2022/09/03 10:58:31;;;;;;;1.30;1.15;;;30.90;1.00;;;;;;5061298;28;20190;-65
2022/09/03 11:01:17;;;;;;;2.40;1.02;;;31.60;1.00;;;;;;5045878;28;20198;-65
2022/09/03 11:04:07;;;;;;;4.65;1.33;;;30.70;1.00;;;;;;5057918;28;20222;-65
2022/09/03 11:07:03;;;;;;;2.50;1.35;;;32.20;1.00;;;;;;5049391;28;20250;-65
2022/09/03 11:09:36;;;;;;;3.47;1.38;;;31.70;1.00;;;;;;5045449;28;20692;-64
2022/09/03 11:12:18;;;;;;;3.35;1.48;;;31.00;1.00;;;;;;5062771;28;20218;-64
2022/09/03 11:14:52;;;;;;;1.95;1.00;;;29.60;1.00;;;;;;5057018;28;20187;-65
2022/09/03 11:17:28;;;;;;;1.30;1.15;;;30.80;1.00;;;;;;5044556;28;20194;-64
2022/09/03 11:20:21;;;;;;;1.95;1.15;;;31.30;1.00;;;;;;5039643;28;20256;-65
2022/09/03 11:23:00;;;;;;;3.22;1.10;;;32.50;1.00;;;;;;5043064;28;20968;-65
2022/09/03 11:25:43;;;;;;;3.13;1.45;;;32.10;1.00;;;;;;5044593;28;20199;-66
2022/09/03 11:28:44;;;;;;;1.70;1.20;;;30.90;1.00;;;;;;5054663;28;20191;-64
2022/09/03 11:31:56;;;;;;;2.13;1.00;;;30.60;1.00;;;;;;5034278;28;20702;-64
2022/09/03 11:34:26;;;;;;;1.85;1.30;;;32.30;1.00;;;;;;5004896;28;20828;-66
2022/09/03 11:37:21;;;;;;;4.10;1.20;;;32.10;1.00;;;;;;5025956;28;20293;-65
2022/09/03 11:40:20;;;;;;;3.20;1.10;;;29.30;1.00;;;;;;5036919;28;20248;-64
2022/09/03 11:42:47;;;;;;;2.42;1.17;;;30.20;1.00;;;;;;5055378;28;20205;-64
2022/09/03 11:45:22;;;;;;;2.78;1.00;;;31.10;1.00;;;;;;5066823;28;20257;-63
2022/09/03 11:47:50;;;;;;;2.88;1.13;;;30.80;1.00;;;;;;5037697;28;20329;-64
2022/09/03 11:50:23;;;;;;;2.55;1.40;;;30.20;1.00;;;;;;5066702;28;20266;-64
2022/09/03 11:52:53;;;;;;;1.85;1.20;;;29.60;1.00;;;;;;5065417;28;20214;-64
2022/09/03 11:55:32;;;;;;;3.63;1.50;;;30.10;1.00;;;;;;5043761;28;20282;-65
2022/09/03 11:58:26;;;;;;;2.78;1.33;;;30.80;1.00;;;;;;5065968;28;20243;-64
2022/09/03 12:00:54;;;;;;;2.90;1.30;;;30.90;1.00;;;;;;5063498;28;20235;-65
2022/09/03 12:03:27;;;;;;;2.97;1.42;;;30.40;1.00;;;;;;5046434;28;20231;-64
2022/09/03 12:06:10;;;;;;;2.72;1.30;;;30.70;1.00;;;;;;5063309;28;20736;-64
2022/09/03 12:08:41;;;;;;;3.95;1.20;;;30.30;1.00;;;;;;5044735;28;20191;-65
2022/09/03 12:11:29;;;;;;;1.95;1.13;;;30.70;1.00;;;;;;5067204;28;20584;-65
2022/09/03 12:14:11;;;;;;;1.60;1.30;;;30.70;1.00;;;;;;5050983;28;21587;-66
2022/09/03 12:16:51;;;;;;;3.30;1.25;;;30.70;1.00;;;;;;5049756;28;20225;-64
2022/09/03 12:19:46;;;;;;;2.85;1.20;;;31.20;1.00;;;;;;5048645;28;20202;-64
2022/09/03 12:22:18;;;;;;;7.18;2.03;;;30.80;1.00;;;;;;5059351;28;20218;-66
2022/09/03 12:24:46;;;;;;;1.85;1.30;;;29.90;1.00;;;;;;5067205;28;20609;-65
2022/09/03 12:27:26;;;;;;;3.10;1.40;;;27.80;1.00;;;;;;5035473;28;20350;-66
2022/09/03 12:30:01;;;;;;;1.95;1.27;;;28.30;1.00;;;;;;5062356;28;20183;-64
2022/09/03 12:32:38;;;;;;;6.28;1.92;;;28.40;1.00;;;;;;5038572;28;20253;-63
2022/09/03 12:35:12;;;;;;;2.42;1.27;;;28.70;1.00;;;;;;5063728;28;20187;-63
2022/09/03 12:37:42;;;;;;;3.60;1.50;;;28.10;1.00;;;;;;5066512;28;20202;-64
2022/09/03 12:40:29;;;;;;;3.65;1.88;;;28.70;1.00;;;;;;5044049;28;20230;-65
2022/09/03 12:43:13;;;;;;;5.63;1.83;;;28.70;1.00;;;;;;5051900;28;20270;-62
2022/09/03 12:45:59;;;;;;;7.82;1.65;;;28.10;1.00;;;;;;5040402;28;20199;-65
2022/09/03 12:49:07;;;;;;;3.83;1.60;;;28.50;1.00;;;;;;5064029;28;20343;-65
2022/09/03 12:52:19;;;;;;;1.90;1.40;;;28.20;1.00;;;;;;5046447;28;20586;-63
2022/09/03 12:54:58;;;;;;;3.08;1.73;;;27.80;1.00;;;;;;5038157;28;20241;-63
2022/09/03 12:57:36;;;;;;;2.95;1.63;;;28.40;1.00;;;;;;5037872;28;20744;-64
2022/09/03 13:00:07;;;;;;;2.05;1.60;;;27.70;1.00;;;;;;5057337;28;20801;-62
2022/09/03 13:03:05;;;;;;;1.70;1.60;;;28.70;1.00;;;;;;5048757;28;20254;-65
2022/09/03 13:05:46;;;;;;;4.90;1.70;;;27.10;1.00;;;;;;5055429;28;20720;-66
2022/09/03 13:08:25;;;;;;;1.42;1.33;;;27.70;1.00;;;;;;5060108;28;20278;-66
2022/09/03 13:10:56;;;;;;;3.50;1.67;;;28.10;1.00;;;;;;5049206;28;20211;-65
2022/09/03 13:13:28;;;;;;;2.15;1.50;;;28.60;1.00;;;;;;5068240;28;20204;-65
2022/09/03 13:16:04;;;;;;;1.50;1.40;;;28.10;1.00;;;;;;5049880;28;20809;-65
2022/09/03 13:18:43;;;;;;;3.90;1.55;;;27.80;1.00;;;;;;5068643;28;20227;-64
2022/09/03 13:21:29;;;;;;;2.75;1.50;;;26.80;1.00;;;;;;5048923;28;20195;-65
2022/09/03 13:24:30;;;;;;;1.77;1.35;;;27.50;1.00;;;;;;5067581;28;20253;-65
2022/09/03 13:27:29;;;;;;;1.70;1.60;;;27.70;1.00;;;;;;5061345;28;20226;-63
2022/09/03 13:30:10;;;;;;;3.90;1.52;;;27.90;1.00;;;;;;5041344;28;20211;-64
2022/09/03 13:33:12;;;;;;;1.73;1.42;;;26.70;1.00;;;;;;5044035;28;20575;-62
2022/09/03 13:35:46;;;;;;;3.13;1.38;;;27.10;1.00;;;;;;5040113;28;20302;-65
2022/09/03 13:38:24;;;;;;;4.07;1.50;;;27.50;1.00;;;;;;5061996;28;20224;-66
2022/09/03 13:40:55;;;;;;;2.10;1.60;;;27.70;1.00;;;;;;5062458;28;20211;-64
2022/09/03 13:43:54;;;;;;;3.90;1.60;;;27.80;1.00;;;;;;5044751;28;20272;-65
2022/09/03 13:46:34;;;;;;;2.72;1.60;;;27.70;1.00;;;;;;4992673;28;20887;-64